sensor_id;sensor_type;location;lat;lon;timestamp;pressure;altitude;pressure_sealevel;temperature;humidity
55410;BME280;41279;43.546;16.426;2023-02-18T00:01:12;52778.72;;;-146.77;79.13
55410;BME280;41279;43.546;16.426;2023-02-18T00:03:39;52754.69;;;-146.77;76.99
55410;BME280;41279;43.546;16.426;2023-02-18T00:06:18;52700.63;;;-146.77;75.28
55410;BME280;41279;43.546;16.426;2023-02-18T00:08:45;52718.63;;;-146.77;82.48
55410;BME280;41279;43.546;16.426;2023-02-18T00:11:12;52726.66;;;-146.77;84.29
55410;BME280;41279;43.546;16.426;2023-02-18T00:13:38;52718.63;;;-146.77;86.28
55410;BME280;41279;43.546;16.426;2023-02-18T00:16:06;52714.63;;;-146.77;85.65
55410;BME280;41279;43.546;16.426;2023-02-18T00:18:32;52722.66;;;-146.77;81.11
55410;BME280;41279;43.546;16.426;2023-02-18T00:20:57;52710.63;;;-146.77;79.98
55410;BME280;41279;43.546;16.426;2023-02-18T00:23:23;52714.63;;;-146.77;80.04
55410;BME280;41279;43.546;16.426;2023-02-18T00:25:49;52714.63;;;-146.77;79.74
55410;BME280;41279;43.546;16.426;2023-02-18T00:28:22;52680.59;;;-146.77;79.83
55410;BME280;41279;43.546;16.426;2023-02-18T00:30:48;52702.63;;;-146.77;79.15
55410;BME280;41279;43.546;16.426;2023-02-18T00:33:13;52722.66;;;-146.77;74.42
55410;BME280;41279;43.546;16.426;2023-02-18T00:35:38;52710.63;;;-146.77;72.35
55410;BME280;41279;43.546;16.426;2023-02-18T00:38:04;52706.63;;;-146.77;71.01
55410;BME280;41279;43.546;16.426;2023-02-18T00:40:29;52698.63;;;-146.77;69.96
55410;BME280;41279;43.546;16.426;2023-02-18T00:42:55;52658.56;;;-146.77;69.01
55410;BME280;41279;43.546;16.426;2023-02-18T00:45:20;52678.59;;;-146.77;70.11
55410;BME280;41279;43.546;16.426;2023-02-18T00:47:46;52678.59;;;-146.77;70.76
55410;BME280;41279;43.546;16.426;2023-02-18T00:50:11;52658.56;;;-146.77;70.71
55410;BME280;41279;43.546;16.426;2023-02-18T00:52:37;52658.56;;;-146.77;69.13
55410;BME280;41279;43.546;16.426;2023-02-18T00:55:02;52688.59;;;-146.77;67.53
55410;BME280;41279;43.546;16.426;2023-02-18T00:57:28;52660.56;;;-146.77;67.67
55410;BME280;41279;43.546;16.426;2023-02-18T00:59:53;52674.59;;;-146.77;67.96
55410;BME280;41279;43.546;16.426;2023-02-18T01:02:19;52666.59;;;-146.77;69.34
55410;BME280;41279;43.546;16.426;2023-02-18T01:04:44;52666.59;;;-146.77;71.08
55410;BME280;41279;43.546;16.426;2023-02-18T01:07:10;52660.56;;;-146.77;71.79
55410;BME280;41279;43.546;16.426;2023-02-18T01:09:35;52700.63;;;-146.77;72.32
55410;BME280;41279;43.546;16.426;2023-02-18T01:12:01;52636.56;;;-146.77;72.12
55410;BME280;41279;43.546;16.426;2023-02-18T01:14:27;52676.59;;;-146.77;72.20
55410;BME280;41279;43.546;16.426;2023-02-18T01:16:52;52672.59;;;-146.77;72.82
55410;BME280;41279;43.546;16.426;2023-02-18T01:19:18;52696.63;;;-146.77;80.10
55410;BME280;41279;43.546;16.426;2023-02-18T01:21:44;52710.63;;;-146.77;76.75
55410;BME280;41279;43.546;16.426;2023-02-18T01:24:09;52680.59;;;-146.77;72.67
55410;BME280;41279;43.546;16.426;2023-02-18T01:26:35;52682.59;;;-146.77;72.09
55410;BME280;41279;43.546;16.426;2023-02-18T01:29:00;52684.59;;;-146.77;71.81
55410;BME280;41279;43.546;16.426;2023-02-18T01:31:25;52664.59;;;-146.77;72.28
55410;BME280;41279;43.546;16.426;2023-02-18T01:33:51;52666.59;;;-146.77;74.86
55410;BME280;41279;43.546;16.426;2023-02-18T01:36:17;52652.56;;;-146.77;76.11
55410;BME280;41279;43.546;16.426;2023-02-18T01:38:42;52684.59;;;-146.77;75.15
55410;BME280;41279;43.546;16.426;2023-02-18T01:41:08;52710.63;;;-146.77;74.90
55410;BME280;41279;43.546;16.426;2023-02-18T01:43:34;52668.59;;;-146.77;73.39
55410;BME280;41279;43.546;16.426;2023-02-18T01:48:36;52658.56;;;-146.77;76.34
55410;BME280;41279;43.546;16.426;2023-02-18T01:51:04;52682.59;;;-146.77;78.55
55410;BME280;41279;43.546;16.426;2023-02-18T01:53:41;52662.56;;;-146.77;77.84
55410;BME280;41279;43.546;16.426;2023-02-18T01:56:11;52698.63;;;-146.77;74.96
55410;BME280;41279;43.546;16.426;2023-02-18T01:58:39;52662.56;;;-146.77;74.62
55410;BME280;41279;43.546;16.426;2023-02-18T02:01:05;52676.59;;;-146.77;74.73
55410;BME280;41279;43.546;16.426;2023-02-18T02:03:30;52686.59;;;-146.77;72.20
55410;BME280;41279;43.546;16.426;2023-02-18T02:05:56;52652.56;;;-146.77;73.30
55410;BME280;41279;43.546;16.426;2023-02-18T02:08:21;52634.53;;;-146.77;73.18
55410;BME280;41279;43.546;16.426;2023-02-18T02:11:10;52642.56;;;-146.77;73.38
55410;BME280;41279;43.546;16.426;2023-02-18T02:16:17;52614.53;;;-146.77;80.12
55410;BME280;41279;43.546;16.426;2023-02-18T02:22:16;52670.59;;;-146.77;73.76
55410;BME280;41279;43.546;16.426;2023-02-18T02:25:31;52650.56;;;-146.77;75.85
55410;BME280;41279;43.546;16.426;2023-02-18T02:36:13;52652.56;;;-146.77;75.89
55410;BME280;41279;43.546;16.426;2023-02-18T02:41:45;52614.53;;;-146.77;76.49
55410;BME280;41279;43.546;16.426;2023-02-18T02:44:23;52686.59;;;-146.77;80.27
55410;BME280;41279;43.546;16.426;2023-02-18T02:46:59;52634.53;;;-146.77;77.32
55410;BME280;41279;43.546;16.426;2023-02-18T02:49:41;52582.50;;;-146.77;79.88
55410;BME280;41279;43.546;16.426;2023-02-18T02:52:21;52618.53;;;-146.77;82.56
55410;BME280;41279;43.546;16.426;2023-02-18T02:54:48;52624.53;;;-146.77;81.55
55410;BME280;41279;43.546;16.426;2023-02-18T02:59:45;52646.56;;;-146.77;76.33
55410;BME280;41279;43.546;16.426;2023-02-18T03:05:07;52646.56;;;-146.77;75.76
55410;BME280;41279;43.546;16.426;2023-02-18T03:12:52;52626.53;;;-146.77;71.38
55410;BME280;41279;43.546;16.426;2023-02-18T03:18:00;52606.53;;;-146.77;73.51
55410;BME280;41279;43.546;16.426;2023-02-18T03:20:32;52620.53;;;-146.77;75.38
55410;BME280;41279;43.546;16.426;2023-02-18T03:23:02;52654.56;;;-146.77;72.41
55410;BME280;41279;43.546;16.426;2023-02-18T03:25:31;52628.53;;;-146.77;71.11
55410;BME280;41279;43.546;16.426;2023-02-18T03:28:05;52600.50;;;-146.77;73.61
55410;BME280;41279;43.546;16.426;2023-02-18T03:31:09;52600.50;;;-146.77;75.50
55410;BME280;41279;43.546;16.426;2023-02-18T03:33:43;52630.53;;;-146.77;75.51
55410;BME280;41279;43.546;16.426;2023-02-18T03:36:10;52610.53;;;-146.77;74.04
55410;BME280;41279;43.546;16.426;2023-02-18T03:38:44;52598.50;;;-146.77;76.43
55410;BME280;41279;43.546;16.426;2023-02-18T03:41:13;52628.53;;;-146.77;79.37
55410;BME280;41279;43.546;16.426;2023-02-18T03:43:40;52602.50;;;-146.77;78.28
55410;BME280;41279;43.546;16.426;2023-02-18T03:46:05;52590.50;;;-146.77;80.79
55410;BME280;41279;43.546;16.426;2023-02-18T03:48:31;52614.53;;;-146.77;81.96
55410;BME280;41279;43.546;16.426;2023-02-18T03:50:57;52614.53;;;-146.77;85.33
55410;BME280;41279;43.546;16.426;2023-02-18T03:53:22;52636.56;;;-146.77;89.05
55410;BME280;41279;43.546;16.426;2023-02-18T03:55:48;52592.50;;;-146.77;92.16
55410;BME280;41279;43.546;16.426;2023-02-18T03:58:13;52630.53;;;-146.77;92.53
55410;BME280;41279;43.546;16.426;2023-02-18T04:00:39;52634.53;;;-146.77;93.71
55410;BME280;41279;43.546;16.426;2023-02-18T04:03:04;52642.56;;;-146.77;88.51
55410;BME280;41279;43.546;16.426;2023-02-18T04:05:30;52666.59;;;-146.77;80.58
55410;BME280;41279;43.546;16.426;2023-02-18T04:07:55;52672.59;;;-146.77;76.93
55410;BME280;41279;43.546;16.426;2023-02-18T04:10:21;52658.56;;;-146.77;75.78
55410;BME280;41279;43.546;16.426;2023-02-18T04:12:47;52650.56;;;-146.77;75.14
55410;BME280;41279;43.546;16.426;2023-02-18T04:15:12;52634.53;;;-146.77;76.62
55410;BME280;41279;43.546;16.426;2023-02-18T04:17:38;52660.56;;;-146.77;75.95
55410;BME280;41279;43.546;16.426;2023-02-18T04:20:04;52642.56;;;-146.77;75.02
55410;BME280;41279;43.546;16.426;2023-02-18T04:22:29;52638.56;;;-146.77;73.43
55410;BME280;41279;43.546;16.426;2023-02-18T04:24:55;52626.53;;;-146.77;71.38
55410;BME280;41279;43.546;16.426;2023-02-18T04:27:20;52646.56;;;-146.77;72.12
55410;BME280;41279;43.546;16.426;2023-02-18T04:29:52;52628.53;;;-146.77;72.59
55410;BME280;41279;43.546;16.426;2023-02-18T04:32:18;52642.56;;;-146.77;74.17
55410;BME280;41279;43.546;16.426;2023-02-18T04:34:43;52646.56;;;-146.77;72.22
55410;BME280;41279;43.546;16.426;2023-02-18T04:37:08;52630.53;;;-146.77;71.68
55410;BME280;41279;43.546;16.426;2023-02-18T04:39:34;52614.53;;;-146.77;72.30
55410;BME280;41279;43.546;16.426;2023-02-18T04:41:59;52598.50;;;-146.77;73.81
55410;BME280;41279;43.546;16.426;2023-02-18T04:44:25;52626.53;;;-146.77;74.82
55410;BME280;41279;43.546;16.426;2023-02-18T04:46:51;52630.53;;;-146.77;74.14
55410;BME280;41279;43.546;16.426;2023-02-18T04:49:16;52598.50;;;-146.77;75.00
55410;BME280;41279;43.546;16.426;2023-02-18T04:51:41;52590.50;;;-146.77;80.96
55410;BME280;41279;43.546;16.426;2023-02-18T04:54:07;52582.50;;;-146.77;82.62
55410;BME280;41279;43.546;16.426;2023-02-18T04:56:32;52598.50;;;-146.77;84.48
55410;BME280;41279;43.546;16.426;2023-02-18T04:58:58;52612.53;;;-146.77;82.05
55410;BME280;41279;43.546;16.426;2023-02-18T05:01:23;52624.53;;;-146.77;82.18
55410;BME280;41279;43.546;16.426;2023-02-18T05:03:49;52660.56;;;-146.77;78.44
55410;BME280;41279;43.546;16.426;2023-02-18T05:06:14;52654.56;;;-146.77;74.39
55410;BME280;41279;43.546;16.426;2023-02-18T05:08:40;52644.56;;;-146.77;72.76
55410;BME280;41279;43.546;16.426;2023-02-18T05:11:08;52638.56;;;-146.77;72.47
55410;BME280;41279;43.546;16.426;2023-02-18T05:13:34;52626.53;;;-146.77;72.59
55410;BME280;41279;43.546;16.426;2023-02-18T05:16:00;52590.50;;;-146.77;75.81
55410;BME280;41279;43.546;16.426;2023-02-18T05:18:25;52612.53;;;-146.77;75.25
55410;BME280;41279;43.546;16.426;2023-02-18T05:20:51;52604.50;;;-146.77;77.47
55410;BME280;41279;43.546;16.426;2023-02-18T05:23:16;52626.53;;;-146.77;73.27
55410;BME280;41279;43.546;16.426;2023-02-18T05:25:44;52634.53;;;-146.77;72.37
55410;BME280;41279;43.546;16.426;2023-02-18T05:28:09;52646.56;;;-146.77;73.47
55410;BME280;41279;43.546;16.426;2023-02-18T05:30:35;52642.56;;;-146.77;71.30
55410;BME280;41279;43.546;16.426;2023-02-18T05:33:00;52658.56;;;-146.77;70.57
55410;BME280;41279;43.546;16.426;2023-02-18T05:35:26;52604.50;;;-146.77;70.06
55410;BME280;41279;43.546;16.426;2023-02-18T05:37:51;52636.56;;;-146.77;68.51
55410;BME280;41279;43.546;16.426;2023-02-18T05:40:17;52628.53;;;-146.77;68.24
55410;BME280;41279;43.546;16.426;2023-02-18T05:42:43;52614.53;;;-146.77;68.14
55410;BME280;41279;43.546;16.426;2023-02-18T05:45:08;52612.53;;;-146.77;70.91
55410;BME280;41279;43.546;16.426;2023-02-18T05:47:33;52568.47;;;-146.77;75.57
55410;BME280;41279;43.546;16.426;2023-02-18T05:50:06;52606.53;;;-146.77;74.22
55410;BME280;41279;43.546;16.426;2023-02-18T05:52:32;52546.47;;;-146.77;74.66
55410;BME280;41279;43.546;16.426;2023-02-18T05:54:57;52598.50;;;-146.77;75.41
55410;BME280;41279;43.546;16.426;2023-02-18T05:57:23;52602.50;;;-146.77;74.47
55410;BME280;41279;43.546;16.426;2023-02-18T05:59:48;52618.53;;;-146.77;72.64
55410;BME280;41279;43.546;16.426;2023-02-18T06:02:13;52612.53;;;-146.77;71.41
55410;BME280;41279;43.546;16.426;2023-02-18T06:04:39;52594.50;;;-146.77;69.82
55410;BME280;41279;43.546;16.426;2023-02-18T06:07:05;52642.56;;;-146.77;68.49
55410;BME280;41279;43.546;16.426;2023-02-18T06:09:31;52600.50;;;-146.77;67.10
55410;BME280;41279;43.546;16.426;2023-02-18T06:11:56;52610.53;;;-146.77;68.08
55410;BME280;41279;43.546;16.426;2023-02-18T06:14:21;52610.53;;;-146.77;67.04
55410;BME280;41279;43.546;16.426;2023-02-18T06:16:47;52594.50;;;-146.77;65.61
55410;BME280;41279;43.546;16.426;2023-02-18T06:19:12;52574.47;;;-146.77;65.13
55410;BME280;41279;43.546;16.426;2023-02-18T06:21:38;52590.50;;;-146.77;65.17
55410;BME280;41279;43.546;16.426;2023-02-18T06:24:04;52606.53;;;-146.77;65.05
55410;BME280;41279;43.546;16.426;2023-02-18T06:26:29;52566.47;;;-146.77;66.16
55410;BME280;41279;43.546;16.426;2023-02-18T06:28:55;52572.47;;;-146.77;67.83
55410;BME280;41279;43.546;16.426;2023-02-18T06:31:21;52594.50;;;-146.77;70.11
55410;BME280;41279;43.546;16.426;2023-02-18T06:33:46;52606.53;;;-146.77;68.46
55410;BME280;41279;43.546;16.426;2023-02-18T06:36:12;52614.53;;;-146.77;66.50
55410;BME280;41279;43.546;16.426;2023-02-18T06:38:42;52604.50;;;-146.77;66.75
55410;BME280;41279;43.546;16.426;2023-02-18T06:41:09;52608.53;;;-146.77;66.39
55410;BME280;41279;43.546;16.426;2023-02-18T06:43:35;52610.53;;;-146.77;67.21
55410;BME280;41279;43.546;16.426;2023-02-18T06:46:01;52616.53;;;-146.77;67.26
55410;BME280;41279;43.546;16.426;2023-02-18T06:48:27;52620.53;;;-146.77;66.96
55410;BME280;41279;43.546;16.426;2023-02-18T06:50:52;52650.56;;;-146.77;65.62
55410;BME280;41279;43.546;16.426;2023-02-18T06:53:18;52626.53;;;-146.77;65.47
55410;BME280;41279;43.546;16.426;2023-02-18T06:55:44;52610.53;;;-146.77;66.47
55410;BME280;41279;43.546;16.426;2023-02-18T06:58:11;52624.53;;;-146.77;66.19
55410;BME280;41279;43.546;16.426;2023-02-18T07:00:37;52664.59;;;-146.77;65.05
55410;BME280;41279;43.546;16.426;2023-02-18T07:03:03;52620.53;;;-146.77;64.83
55410;BME280;41279;43.546;16.426;2023-02-18T07:05:28;52624.53;;;-146.77;63.86
55410;BME280;41279;43.546;16.426;2023-02-18T07:07:55;52656.56;;;-146.77;63.45
55410;BME280;41279;43.546;16.426;2023-02-18T07:10:21;52668.59;;;-146.77;62.79
55410;BME280;41279;43.546;16.426;2023-02-18T07:12:46;52670.59;;;-146.77;61.68
55410;BME280;41279;43.546;16.426;2023-02-18T07:15:12;52666.59;;;-146.77;61.91
55410;BME280;41279;43.546;16.426;2023-02-18T07:17:38;52694.63;;;-146.77;61.09
55410;BME280;41279;43.546;16.426;2023-02-18T07:20:04;52702.63;;;-146.77;61.75
55410;BME280;41279;43.546;16.426;2023-02-18T07:22:30;52708.63;;;-146.77;61.42
55410;BME280;41279;43.546;16.426;2023-02-18T07:24:55;52750.69;;;-146.77;61.33
55410;BME280;41279;43.546;16.426;2023-02-18T07:27:21;52700.63;;;-146.77;60.31
55410;BME280;41279;43.546;16.426;2023-02-18T07:29:47;52714.63;;;-146.77;59.91
55410;BME280;41279;43.546;16.426;2023-02-18T07:32:15;52696.63;;;-146.77;59.82
55410;BME280;41279;43.546;16.426;2023-02-18T07:34:41;52702.63;;;-146.77;58.79
55410;BME280;41279;43.546;16.426;2023-02-18T07:37:06;52718.63;;;-146.77;58.57
55410;BME280;41279;43.546;16.426;2023-02-18T07:39:39;52740.66;;;-146.77;58.04
55410;BME280;41279;43.546;16.426;2023-02-18T07:42:04;52706.63;;;-146.77;57.35
55410;BME280;41279;43.546;16.426;2023-02-18T07:44:30;52704.63;;;-146.77;57.33
55410;BME280;41279;43.546;16.426;2023-02-18T07:46:55;52670.59;;;-146.77;56.98
55410;BME280;41279;43.546;16.426;2023-02-18T07:49:21;52662.56;;;-146.77;57.51
55410;BME280;41279;43.546;16.426;2023-02-18T07:51:48;52700.63;;;-146.77;56.99
55410;BME280;41279;43.546;16.426;2023-02-18T07:54:13;52702.63;;;-146.77;56.17
55410;BME280;41279;43.546;16.426;2023-02-18T07:56:39;52694.63;;;-146.77;55.83
55410;BME280;41279;43.546;16.426;2023-02-18T07:59:05;52702.63;;;-146.77;56.07
55410;BME280;41279;43.546;16.426;2023-02-18T08:01:30;52740.66;;;-146.77;55.97
55410;BME280;41279;43.546;16.426;2023-02-18T08:03:56;52664.59;;;-146.77;56.88
55410;BME280;41279;43.546;16.426;2023-02-18T08:06:30;52720.66;;;-146.77;56.24
55410;BME280;41279;43.546;16.426;2023-02-18T08:08:57;52666.59;;;-146.77;56.67
55410;BME280;41279;43.546;16.426;2023-02-18T08:11:23;52680.59;;;-146.77;56.34
55410;BME280;41279;43.546;16.426;2023-02-18T08:13:48;52762.69;;;-146.77;55.83
55410;BME280;41279;43.546;16.426;2023-02-18T08:16:15;52732.66;;;-146.77;56.15
55410;BME280;41279;43.546;16.426;2023-02-18T08:18:41;52724.66;;;-146.77;55.97
55410;BME280;41279;43.546;16.426;2023-02-18T08:21:07;52694.63;;;-146.77;55.73
55410;BME280;41279;43.546;16.426;2023-02-18T08:23:32;52744.66;;;-146.77;54.96
55410;BME280;41279;43.546;16.426;2023-02-18T08:25:57;52714.63;;;-146.77;54.84
55410;BME280;41279;43.546;16.426;2023-02-18T08:28:23;52716.63;;;-146.77;55.54
55410;BME280;41279;43.546;16.426;2023-02-18T08:30:51;52662.56;;;-146.77;56.17
55410;BME280;41279;43.546;16.426;2023-02-18T08:33:17;52682.59;;;-146.77;56.08
55410;BME280;41279;43.546;16.426;2023-02-18T08:35:44;52676.59;;;-146.77;56.61
55410;BME280;41279;43.546;16.426;2023-02-18T08:38:09;52676.59;;;-146.77;56.07
55410;BME280;41279;43.546;16.426;2023-02-18T08:40:35;52706.63;;;-146.77;55.93
55410;BME280;41279;43.546;16.426;2023-02-18T08:43:01;52714.63;;;-146.77;55.54
55410;BME280;41279;43.546;16.426;2023-02-18T08:45:26;52702.63;;;-146.77;55.18
55410;BME280;41279;43.546;16.426;2023-02-18T08:47:52;52734.66;;;-146.77;55.21
55410;BME280;41279;43.546;16.426;2023-02-18T08:50:18;52748.66;;;-146.77;54.59
55410;BME280;41279;43.546;16.426;2023-02-18T08:52:45;52706.63;;;-146.77;54.33
55410;BME280;41279;43.546;16.426;2023-02-18T08:55:11;52724.66;;;-146.77;53.75
55410;BME280;41279;43.546;16.426;2023-02-18T08:57:37;52738.66;;;-146.77;53.17
55410;BME280;41279;43.546;16.426;2023-02-18T09:00:03;52738.66;;;-146.77;53.64
55410;BME280;41279;43.546;16.426;2023-02-18T09:02:30;52720.66;;;-146.77;54.54
55410;BME280;41279;43.546;16.426;2023-02-18T09:04:56;52694.63;;;-146.77;54.16
55410;BME280;41279;43.546;16.426;2023-02-18T09:07:21;52676.59;;;-146.77;54.80
55410;BME280;41279;43.546;16.426;2023-02-18T09:09:46;52670.59;;;-146.77;56.34
55410;BME280;41279;43.546;16.426;2023-02-18T09:12:12;52660.56;;;-146.77;56.85
55410;BME280;41279;43.546;16.426;2023-02-18T09:14:37;52652.56;;;-146.77;56.07
55410;BME280;41279;43.546;16.426;2023-02-18T09:17:03;52710.63;;;-146.77;55.33
55410;BME280;41279;43.546;16.426;2023-02-18T09:19:28;52646.56;;;-146.77;57.23
55410;BME280;41279;43.546;16.426;2023-02-18T09:21:54;52650.56;;;-146.77;57.51
55410;BME280;41279;43.546;16.426;2023-02-18T09:24:28;52636.56;;;-146.77;59.31
55410;BME280;41279;43.546;16.426;2023-02-18T09:26:53;52630.53;;;-146.77;61.53
55410;BME280;41279;43.546;16.426;2023-02-18T09:29:19;52674.59;;;-146.77;60.10
55410;BME280;41279;43.546;16.426;2023-02-18T09:31:45;52610.53;;;-146.77;59.97
55410;BME280;41279;43.546;16.426;2023-02-18T09:34:11;52678.59;;;-146.77;60.08
55410;BME280;41279;43.546;16.426;2023-02-18T09:36:37;52642.56;;;-146.77;63.01
55410;BME280;41279;43.546;16.426;2023-02-18T09:39:04;52652.56;;;-146.77;63.41
55410;BME280;41279;43.546;16.426;2023-02-18T09:44:02;52650.56;;;-146.77;62.84
55410;BME280;41279;43.546;16.426;2023-02-18T09:46:35;52638.56;;;-146.77;64.31
55410;BME280;41279;43.546;16.426;2023-02-18T09:49:03;52670.59;;;-146.77;65.14
55410;BME280;41279;43.546;16.426;2023-02-18T09:51:31;52662.56;;;-146.77;65.01
55410;BME280;41279;43.546;16.426;2023-02-18T09:53:57;52620.53;;;-146.77;65.16
55410;BME280;41279;43.546;16.426;2023-02-18T09:56:28;52670.59;;;-146.77;62.22
55410;BME280;41279;43.546;16.426;2023-02-18T09:58:57;52706.63;;;-146.77;61.81
55410;BME280;41279;43.546;16.426;2023-02-18T10:01:36;52698.63;;;-146.77;61.29
55410;BME280;41279;43.546;16.426;2023-02-18T10:04:06;52634.53;;;-146.77;62.38
55410;BME280;41279;43.546;16.426;2023-02-18T10:06:35;52626.53;;;-146.77;59.77
55410;BME280;41279;43.546;16.426;2023-02-18T10:09:20;52664.59;;;-146.77;60.91
55410;BME280;41279;43.546;16.426;2023-02-18T10:11:51;52698.63;;;-146.77;63.16
55410;BME280;41279;43.546;16.426;2023-02-18T10:14:17;52718.63;;;-146.77;64.21
55410;BME280;41279;43.546;16.426;2023-02-18T10:16:45;52654.56;;;-146.77;64.62
55410;BME280;41279;43.546;16.426;2023-02-18T10:19:37;52648.56;;;-146.77;66.17
55410;BME280;41279;43.546;16.426;2023-02-18T10:22:05;52684.59;;;-146.77;67.67
55410;BME280;41279;43.546;16.426;2023-02-18T10:24:32;52708.63;;;-146.77;67.77
55410;BME280;41279;43.546;16.426;2023-02-18T10:27:01;52738.66;;;-146.77;68.29
55410;BME280;41279;43.546;16.426;2023-02-18T10:29:28;52726.66;;;-146.77;66.49
55410;BME280;41279;43.546;16.426;2023-02-18T10:32:05;52724.66;;;-146.77;65.07
55410;BME280;41279;43.546;16.426;2023-02-18T10:37:11;52732.66;;;-146.77;65.34
55410;BME280;41279;43.546;16.426;2023-02-18T10:42:30;52748.66;;;-146.77;65.05
55410;BME280;41279;43.546;16.426;2023-02-18T10:45:11;52800.72;;;-146.77;63.58
55410;BME280;41279;43.546;16.426;2023-02-18T10:47:45;52806.75;;;-146.77;61.58
55410;BME280;41279;43.546;16.426;2023-02-18T10:50:42;52762.69;;;-146.77;61.58
55410;BME280;41279;43.546;16.426;2023-02-18T10:56:13;52732.66;;;-146.77;64.72
55410;BME280;41279;43.546;16.426;2023-02-18T10:59:01;52758.69;;;-146.77;64.80
55410;BME280;41279;43.546;16.426;2023-02-18T11:01:30;52732.66;;;-146.77;63.88
55410;BME280;41279;43.546;16.426;2023-02-18T11:04:15;52738.66;;;-146.77;64.32
55410;BME280;41279;43.546;16.426;2023-02-18T11:06:45;52734.66;;;-146.77;64.22
55410;BME280;41279;43.546;16.426;2023-02-18T11:09:40;52738.66;;;-146.77;63.66
55410;BME280;41279;43.546;16.426;2023-02-18T11:12:27;52714.63;;;-146.77;61.02
55410;BME280;41279;43.546;16.426;2023-02-18T11:17:34;52792.72;;;-146.77;61.48
55410;BME280;41279;43.546;16.426;2023-02-18T11:20:33;52732.66;;;-146.77;62.11
55410;BME280;41279;43.546;16.426;2023-02-18T11:25:33;52728.66;;;-146.77;59.87
55410;BME280;41279;43.546;16.426;2023-02-18T11:28:02;52762.69;;;-146.77;60.17
55410;BME280;41279;43.546;16.426;2023-02-18T11:30:40;52774.69;;;-146.77;59.83
55410;BME280;41279;43.546;16.426;2023-02-18T11:35:57;52810.75;;;-146.77;55.87
55410;BME280;41279;43.546;16.426;2023-02-18T11:38:35;52844.78;;;-146.77;56.12
55410;BME280;41279;43.546;16.426;2023-02-18T11:41:07;52762.69;;;-146.77;56.64
55410;BME280;41279;43.546;16.426;2023-02-18T11:43:33;52742.66;;;-146.77;54.63
55410;BME280;41279;43.546;16.426;2023-02-18T11:46:11;52796.72;;;-146.77;53.82
55410;BME280;41279;43.546;16.426;2023-02-18T11:48:37;52816.75;;;-146.77;51.75
55410;BME280;41279;43.546;16.426;2023-02-18T11:51:16;52814.75;;;-146.77;51.43
55410;BME280;41279;43.546;16.426;2023-02-18T11:53:55;52752.69;;;-146.77;52.87
55410;BME280;41279;43.546;16.426;2023-02-18T11:56:24;52798.72;;;-146.77;51.97
55410;BME280;41279;43.546;16.426;2023-02-18T11:58:50;52802.72;;;-146.77;50.80
55410;BME280;41279;43.546;16.426;2023-02-18T12:04:07;52808.75;;;-146.77;50.26
55410;BME280;41279;43.546;16.426;2023-02-18T12:06:40;52822.75;;;-146.77;50.21
55410;BME280;41279;43.546;16.426;2023-02-18T12:09:27;52796.72;;;-146.77;49.39
55410;BME280;41279;43.546;16.426;2023-02-18T12:12:04;52746.66;;;-146.77;50.29
55410;BME280;41279;43.546;16.426;2023-02-18T12:14:31;52782.72;;;-146.77;49.37
55410;BME280;41279;43.546;16.426;2023-02-18T12:30:59;52814.75;;;-146.77;51.21
55410;BME280;41279;43.546;16.426;2023-02-18T12:39:39;52862.81;;;-146.77;48.48
55410;BME280;41279;43.546;16.426;2023-02-18T12:53:12;52798.72;;;-146.77;47.10
55410;BME280;41279;43.546;16.426;2023-02-18T12:55:42;52800.72;;;-146.77;46.26
55410;BME280;41279;43.546;16.426;2023-02-18T12:58:32;52798.72;;;-146.77;45.37
55410;BME280;41279;43.546;16.426;2023-02-18T13:04:12;52856.78;;;-146.77;44.51
55410;BME280;41279;43.546;16.426;2023-02-18T13:09:46;52860.78;;;-146.77;44.60
55410;BME280;41279;43.546;16.426;2023-02-18T13:12:22;52820.75;;;-146.77;44.69
55410;BME280;41279;43.546;16.426;2023-02-18T13:14:55;52776.69;;;-146.77;44.91
55410;BME280;41279;43.546;16.426;2023-02-18T13:17:26;52840.78;;;-146.77;43.89
55410;BME280;41279;43.546;16.426;2023-02-18T13:23:01;52766.69;;;-146.77;45.43
55410;BME280;41279;43.546;16.426;2023-02-18T13:25:28;52766.69;;;-146.77;43.94
55410;BME280;41279;43.546;16.426;2023-02-18T13:28:20;52692.63;;;-146.77;45.29
55410;BME280;41279;43.546;16.426;2023-02-18T13:30:54;52744.66;;;-146.77;44.42
55410;BME280;41279;43.546;16.426;2023-02-18T13:33:36;52824.75;;;-146.77;44.51
55410;BME280;41279;43.546;16.426;2023-02-18T13:36:12;52816.75;;;-146.77;44.00
55410;BME280;41279;43.546;16.426;2023-02-18T13:38:55;52842.78;;;-146.77;43.79
55410;BME280;41279;43.546;16.426;2023-02-18T13:41:24;52814.75;;;-146.77;43.70
55410;BME280;41279;43.546;16.426;2023-02-18T13:43:50;52802.72;;;-146.77;43.91
55410;BME280;41279;43.546;16.426;2023-02-18T13:46:20;52838.78;;;-146.77;43.65
55410;BME280;41279;43.546;16.426;2023-02-18T13:51:46;52754.69;;;-146.77;42.52
55410;BME280;41279;43.546;16.426;2023-02-18T13:56:48;52718.63;;;-146.77;43.52
55410;BME280;41279;43.546;16.426;2023-02-18T13:59:29;52768.69;;;-146.77;43.39
55410;BME280;41279;43.546;16.426;2023-02-18T14:02:28;52794.72;;;-146.77;43.61
55410;BME280;41279;43.546;16.426;2023-02-18T14:04:55;52756.69;;;-146.77;44.84
55410;BME280;41279;43.546;16.426;2023-02-18T14:09:50;52678.59;;;-146.77;48.44
55410;BME280;41279;43.546;16.426;2023-02-18T14:14:41;52682.59;;;-146.77;51.47
55410;BME280;41279;43.546;16.426;2023-02-18T14:19:54;52698.63;;;-146.77;49.48
55410;BME280;41279;43.546;16.426;2023-02-18T14:27:36;52744.66;;;-146.77;49.57
55410;BME280;41279;43.546;16.426;2023-02-18T14:30:05;52756.69;;;-146.77;51.32
55410;BME280;41279;43.546;16.426;2023-02-18T14:32:32;52706.63;;;-146.77;51.57